createdAt,value
2022-10-07T00:01:38.756Z,14.14
2022-10-07T00:04:25.062Z,14.30
2022-10-07T00:07:11.238Z,14.37
2022-10-07T00:09:57.774Z,14.48
2022-10-07T00:12:43.924Z,14.43
2022-10-07T00:15:30.182Z,14.31
2022-10-07T00:18:16.043Z,13.90
2022-10-07T00:21:03.477Z,14.11
2022-10-07T00:23:49.248Z,14.21
2022-10-07T00:26:36.497Z,14.32
2022-10-07T00:29:22.385Z,13.83
2022-10-07T00:32:10.515Z,13.90
2022-10-07T00:34:56.360Z,14.15
2022-10-07T00:37:43.554Z,14.26
2022-10-07T00:40:29.932Z,14.15
2022-10-07T00:43:24.301Z,14.19
2022-10-07T00:46:16.962Z,14.25
2022-10-07T00:49:05.294Z,13.96
2022-10-07T00:51:51.916Z,13.76
2022-10-07T00:54:38.088Z,13.80
2022-10-07T00:57:25.049Z,13.58
2022-10-07T01:00:11.501Z,13.92
2022-10-07T01:02:57.526Z,13.40
2022-10-07T01:05:43.973Z,13.49
2022-10-07T01:08:29.724Z,13.46
2022-10-07T01:11:18.030Z,13.71
2022-10-07T01:14:07.385Z,13.55
2022-10-07T01:17:14.066Z,13.75
2022-10-07T01:20:17.356Z,13.69
2022-10-07T01:23:03.520Z,13.85
2022-10-07T01:25:56.007Z,13.80
2022-10-07T01:28:42.543Z,13.63
2022-10-07T01:31:32.733Z,13.26
2022-10-07T01:34:19.115Z,13.42
2022-10-07T01:37:05.768Z,13.68
2022-10-07T01:39:53.483Z,13.76
2022-10-07T01:42:39.694Z,13.70
2022-10-07T01:45:26.673Z,13.50
2022-10-07T01:48:12.202Z,13.70
2022-10-07T01:51:00.445Z,13.39
2022-10-07T01:54:02.507Z,13.38
2022-10-07T01:56:50.063Z,13.20
2022-10-07T01:59:36.944Z,13.19
2022-10-07T02:02:49.683Z,13.60
2022-10-07T02:05:51.381Z,13.58
2022-10-07T02:08:39.661Z,12.98
2022-10-07T02:11:29.704Z,12.83
2022-10-07T02:14:16.640Z,12.71
2022-10-07T02:17:04.026Z,13.05
2022-10-07T02:19:53.482Z,13.02
2022-10-07T02:22:39.950Z,12.51
2022-10-07T02:25:25.847Z,13.04
2022-10-07T02:28:12.860Z,13.04
2022-10-07T02:31:00.065Z,13.20
2022-10-07T02:33:47.164Z,13.00
2022-10-07T02:36:34.852Z,12.89
2022-10-07T02:39:21.623Z,13.09
2022-10-07T02:42:09.228Z,13.18
2022-10-07T02:44:56.709Z,12.85
2022-10-07T02:47:45.259Z,12.76
2022-10-07T02:50:34.733Z,12.66
2022-10-07T02:53:20.711Z,12.72
2022-10-07T02:56:07.470Z,13.02
2022-10-07T02:58:53.557Z,12.98
2022-10-07T03:01:41.651Z,12.89
2022-10-07T03:04:27.712Z,12.81
2022-10-07T03:07:14.028Z,12.83
2022-10-07T03:09:59.913Z,12.70
2022-10-07T03:12:46.375Z,12.17
2022-10-07T03:15:32.985Z,12.54
2022-10-07T03:18:29.380Z,12.68
2022-10-07T03:21:16.630Z,12.79
2022-10-07T03:24:05.182Z,12.74
2022-10-07T03:26:52.947Z,12.66
2022-10-07T03:29:39.343Z,12.44
2022-10-07T03:32:27.265Z,12.69
2022-10-07T03:35:13.987Z,12.46
2022-10-07T03:38:01.099Z,12.30
2022-10-07T03:40:48.153Z,12.23
2022-10-07T03:43:34.233Z,12.57
2022-10-07T03:46:21.002Z,12.71
2022-10-07T03:49:07.828Z,12.41
2022-10-07T03:51:54.179Z,12.27
2022-10-07T03:54:40.107Z,11.55
2022-10-07T03:57:45.502Z,11.90
2022-10-07T04:00:31.395Z,12.12
2022-10-07T04:03:18.799Z,12.29
2022-10-07T04:06:05.029Z,12.28
2022-10-07T04:08:52.088Z,12.34
2022-10-07T04:11:40.658Z,12.42
2022-10-07T04:14:27.271Z,12.53
2022-10-07T04:17:13.949Z,12.30
2022-10-07T04:20:00.107Z,12.00
2022-10-07T04:22:46.289Z,12.13
2022-10-07T04:25:35.870Z,12.46
2022-10-07T04:28:24.219Z,12.41
2022-10-07T04:31:11.441Z,12.05
2022-10-07T04:33:58.210Z,12.17
2022-10-07T04:36:44.487Z,12.09
2022-10-07T04:39:56.136Z,12.12
2022-10-07T04:42:55.507Z,11.95
2022-10-07T04:45:41.976Z,11.77
2022-10-07T04:48:28.185Z,11.63
2022-10-07T04:51:16.014Z,11.66
2022-10-07T04:54:03.070Z,12.02
2022-10-07T04:56:50.098Z,11.99
2022-10-07T04:59:42.475Z,11.75
2022-10-07T05:02:30.005Z,11.93
2022-10-07T05:05:17.648Z,12.09
2022-10-07T05:08:04.207Z,12.30
2022-10-07T05:10:54.415Z,12.08
2022-10-07T05:13:40.681Z,12.09
2022-10-07T05:16:27.101Z,11.91
2022-10-07T05:19:12.822Z,11.89
2022-10-07T05:21:59.187Z,11.64
2022-10-07T05:24:45.118Z,11.78
2022-10-07T05:27:32.497Z,11.63
2022-10-07T05:30:19.187Z,11.93
2022-10-07T05:33:05.486Z,11.74
2022-10-07T05:35:51.573Z,12.11
2022-10-07T05:38:38.181Z,12.29
2022-10-07T05:41:24.008Z,12.13
2022-10-07T05:44:10.094Z,11.93
2022-10-07T05:46:56.470Z,12.21
2022-10-07T05:49:43.266Z,11.88
2022-10-07T05:52:30.378Z,12.03
2022-10-07T05:55:18.486Z,11.73
2022-10-07T05:58:04.878Z,11.90
2022-10-07T06:00:55.279Z,12.16
2022-10-07T06:03:42.010Z,11.86
2022-10-07T06:06:30.157Z,11.64
2022-10-07T06:09:35.425Z,12.24
2022-10-07T06:12:40.118Z,10.91
2022-10-07T06:15:26.103Z,10.22
2022-10-07T06:18:12.103Z,10.64
2022-10-07T06:20:59.443Z,11.18
2022-10-07T06:23:51.289Z,10.78
2022-10-07T06:26:38.100Z,11.84
2022-10-07T06:29:24.023Z,12.30
2022-10-07T06:32:10.548Z,12.11
2022-10-07T06:34:57.133Z,12.22
2022-10-07T06:37:44.567Z,12.78
2022-10-07T06:40:30.373Z,13.26
2022-10-07T06:43:17.189Z,13.02
2022-10-07T06:46:04.264Z,13.44
2022-10-07T06:48:51.275Z,13.45
2022-10-07T06:51:37.316Z,13.27
2022-10-07T06:54:24.301Z,13.42
2022-10-07T06:57:33.117Z,13.11
2022-10-07T07:00:16.968Z,13.21
2022-10-07T07:03:02.680Z,13.43
2022-10-07T07:05:50.962Z,13.21
2022-10-07T07:08:45.912Z,13.25
2022-10-07T07:11:38.275Z,13.74
2022-10-07T07:14:25.927Z,14.36
2022-10-07T07:17:12.284Z,14.71
2022-10-07T07:19:58.587Z,14.48
2022-10-07T07:22:45.079Z,14.74
2022-10-07T07:25:32.032Z,14.97
2022-10-07T07:28:18.862Z,15.03
2022-10-07T07:31:09.498Z,15.23
2022-10-07T07:33:57.118Z,15.30
2022-10-07T07:36:44.347Z,15.39
2022-10-07T07:39:31.043Z,15.49
2022-10-07T07:42:18.989Z,15.71
2022-10-07T07:45:06.037Z,15.84
2022-10-07T07:47:52.939Z,15.70
2022-10-07T07:50:40.078Z,16.50
2022-10-07T07:53:26.047Z,15.62
2022-10-07T07:56:12.663Z,15.07
2022-10-07T07:58:59.436Z,15.13
2022-10-07T08:01:45.530Z,15.35
2022-10-07T08:04:31.901Z,15.94
2022-10-07T08:07:18.252Z,16.50
2022-10-07T08:10:04.907Z,16.89
2022-10-07T08:12:50.985Z,17.18
2022-10-07T08:15:37.428Z,16.28
2022-10-07T08:18:23.163Z,16.72
2022-10-07T08:21:10.679Z,17.28
2022-10-07T08:23:57.523Z,17.65
2022-10-07T08:26:44.593Z,17.90
2022-10-07T08:29:31.069Z,17.64
2022-10-07T08:32:17.465Z,17.94
2022-10-07T08:35:03.695Z,18.10
2022-10-07T08:37:49.927Z,18.58
2022-10-07T08:40:35.990Z,18.20
2022-10-07T08:43:23.746Z,18.40
2022-10-07T08:46:11.117Z,18.63
2022-10-07T08:48:59.968Z,18.85
2022-10-07T08:51:50.588Z,19.06
2022-10-07T08:54:36.399Z,18.79
2022-10-07T08:57:46.538Z,19.27
2022-10-07T09:00:54.129Z,18.99
2022-10-07T09:03:39.798Z,19.55
2022-10-07T09:06:30.726Z,18.97
2022-10-07T09:09:17.900Z,19.74
2022-10-07T09:12:05.339Z,19.39
2022-10-07T09:14:55.913Z,19.66
2022-10-07T09:17:44.019Z,19.87
2022-10-07T09:20:31.901Z,19.20
2022-10-07T09:23:19.296Z,20.12
2022-10-07T09:26:12.103Z,20.26
2022-10-07T09:28:58.766Z,20.61
2022-10-07T09:31:44.839Z,20.25
2022-10-07T09:34:31.383Z,21.21
2022-10-07T09:37:21.170Z,21.04
2022-10-07T09:40:29.993Z,20.21
2022-10-07T09:43:16.949Z,21.46
2022-10-07T09:46:03.346Z,22.37
2022-10-07T09:48:52.971Z,22.78
2022-10-07T09:51:39.652Z,20.26
2022-10-07T09:54:26.175Z,22.41
2022-10-07T09:57:28.953Z,22.35
2022-10-07T10:00:22.469Z,23.25
2022-10-07T10:03:08.892Z,23.32
2022-10-07T10:05:59.130Z,22.36
2022-10-07T10:08:45.131Z,23.77
2022-10-07T10:11:31.104Z,24.57
2022-10-07T10:14:26.772Z,24.22
2022-10-07T10:17:51.680Z,24.91
2022-10-07T10:20:44.631Z,25.71
2022-10-07T10:23:30.304Z,24.92
2022-10-07T10:26:35.861Z,25.01
2022-10-07T10:29:21.559Z,25.58
2022-10-07T10:32:15.661Z,24.54
2022-10-07T10:35:07.531Z,24.44
2022-10-07T10:38:18.951Z,25.77
2022-10-07T10:41:21.685Z,25.38
2022-10-07T10:44:34.858Z,25.33
2022-10-07T10:47:48.819Z,25.63
2022-10-07T10:50:55.020Z,25.86
2022-10-07T10:53:49.794Z,26.56
2022-10-07T10:56:48.264Z,25.80
2022-10-07T10:59:48.004Z,25.25
2022-10-07T11:02:37.325Z,25.38
2022-10-07T11:05:24.224Z,25.35
2022-10-07T11:08:11.204Z,24.47
2022-10-07T11:10:56.991Z,24.74
2022-10-07T11:13:45.752Z,23.39
2022-10-07T11:16:33.174Z,23.22
2022-10-07T11:19:43.293Z,23.48
2022-10-07T11:22:32.988Z,22.92
2022-10-07T11:25:36.628Z,23.28
2022-10-07T11:28:29.085Z,24.04
2022-10-07T11:31:18.762Z,24.18
2022-10-07T11:34:05.038Z,23.20
2022-10-07T11:36:59.921Z,23.25
2022-10-07T11:39:46.151Z,23.71
2022-10-07T11:42:33.724Z,23.32
2022-10-07T11:45:20.514Z,22.63
2022-10-07T11:48:31.115Z,22.84
2022-10-07T11:51:20.061Z,23.34
2022-10-07T11:54:06.770Z,23.77
2022-10-07T11:56:52.561Z,23.07
2022-10-07T11:59:38.900Z,22.85
2022-10-07T12:02:28.110Z,22.97
2022-10-07T12:05:32.909Z,23.37
2022-10-07T12:08:27.479Z,23.89
2022-10-07T12:11:13.660Z,23.37
2022-10-07T12:14:02.177Z,23.55
2022-10-07T12:16:55.176Z,23.49
2022-10-07T12:19:41.083Z,23.89
2022-10-07T12:22:28.055Z,24.22
2022-10-07T12:25:29.279Z,23.81
2022-10-07T12:28:16.270Z,23.87
2022-10-07T12:31:02.395Z,23.99
2022-10-07T12:33:56.406Z,24.03
2022-10-07T12:36:42.896Z,23.58
2022-10-07T12:39:34.553Z,23.69
2022-10-07T12:42:20.381Z,24.08
2022-10-07T12:45:09.222Z,24.44
2022-10-07T12:47:57.472Z,25.04
2022-10-07T12:50:44.790Z,25.30
2022-10-07T12:53:35.545Z,24.89
2022-10-07T12:56:31.401Z,25.75
2022-10-07T12:59:35.899Z,25.71
2022-10-07T13:02:50.362Z,26.35
2022-10-07T13:05:43.725Z,26.59
2022-10-07T13:09:04.043Z,26.75
2022-10-07T13:11:56.093Z,26.90
2022-10-07T13:14:55.361Z,27.06
2022-10-07T13:18:09.864Z,26.82
2022-10-07T13:21:02.325Z,27.12
2022-10-07T13:23:55.190Z,25.95
2022-10-07T13:26:43.835Z,26.34
2022-10-07T13:29:33.063Z,27.44
2022-10-07T13:32:29.735Z,28.10
2022-10-07T13:35:36.240Z,27.82
2022-10-07T13:38:27.271Z,28.25
2022-10-07T13:41:16.233Z,28.73
2022-10-07T13:44:04.627Z,28.47
2022-10-07T13:46:58.157Z,28.05
2022-10-07T13:49:45.435Z,28.25
2022-10-07T13:52:38.042Z,28.43
2022-10-07T13:55:28.336Z,29.02
2022-10-07T13:58:14.111Z,28.98
2022-10-07T14:01:03.822Z,28.97
2022-10-07T14:04:04.625Z,29.49
2022-10-07T14:06:53.771Z,29.70
2022-10-07T14:09:49.159Z,29.44
2022-10-07T14:12:38.874Z,29.05
2022-10-07T14:15:25.956Z,29.74
2022-10-07T14:18:12.600Z,29.90
2022-10-07T14:21:09.086Z,29.57
2022-10-07T14:23:54.940Z,29.42
2022-10-07T14:26:43.612Z,29.78
2022-10-07T14:29:29.353Z,29.81
2022-10-07T14:32:38.649Z,29.05
2022-10-07T14:35:25.847Z,29.46
2022-10-07T14:38:27.807Z,29.04
2022-10-07T14:41:15.901Z,29.02
2022-10-07T14:44:04.066Z,29.48
2022-10-07T14:46:50.144Z,29.47
2022-10-07T14:49:36.740Z,29.23
2022-10-07T14:52:32.244Z,28.23
2022-10-07T14:55:19.815Z,28.40
2022-10-07T14:58:06.034Z,28.37
2022-10-07T15:00:52.622Z,28.27
2022-10-07T15:03:38.793Z,28.26
2022-10-07T15:06:25.188Z,28.12
2022-10-07T15:09:13.139Z,27.57
2022-10-07T15:11:59.414Z,27.49
2022-10-07T15:14:45.203Z,27.04
2022-10-07T15:17:31.583Z,26.84
2022-10-07T15:20:18.120Z,26.58
2022-10-07T15:23:05.397Z,25.73
2022-10-07T15:25:51.964Z,25.39
2022-10-07T15:28:38.339Z,25.45
2022-10-07T15:31:27.102Z,25.47
2022-10-07T15:34:14.361Z,25.17
2022-10-07T15:37:00.795Z,24.76
2022-10-07T15:39:47.349Z,24.45
2022-10-07T15:42:33.702Z,24.40
2022-10-07T15:45:20.094Z,24.22
2022-10-07T15:48:07.257Z,24.03
2022-10-07T15:50:53.968Z,23.65
2022-10-07T15:53:40.388Z,23.68
2022-10-07T15:56:27.026Z,23.53
2022-10-07T15:59:13.522Z,23.32
2022-10-07T16:02:00.228Z,23.34
2022-10-07T16:04:47.299Z,23.24
2022-10-07T16:07:33.248Z,23.21
2022-10-07T16:10:19.665Z,22.79
2022-10-07T16:13:05.923Z,22.68
2022-10-07T16:16:04.088Z,22.63
2022-10-07T16:18:51.910Z,22.56
2022-10-07T16:21:40.786Z,22.43
2022-10-07T16:24:30.005Z,22.43
2022-10-07T16:27:19.311Z,22.21
2022-10-07T16:30:24.563Z,21.99
2022-10-07T16:33:10.982Z,21.71
2022-10-07T16:35:58.379Z,21.68
2022-10-07T16:38:45.981Z,21.60
2022-10-07T16:41:32.796Z,21.55
2022-10-07T16:44:19.902Z,21.36
2022-10-07T16:47:06.216Z,21.08
2022-10-07T16:49:52.355Z,20.97
2022-10-07T16:52:38.539Z,21.10
2022-10-07T16:55:24.933Z,20.91
2022-10-07T16:58:11.277Z,20.72
2022-10-07T17:01:03.685Z,20.56
2022-10-07T17:03:51.117Z,20.37
2022-10-07T17:06:37.679Z,20.21
2022-10-07T17:09:25.303Z,20.17
2022-10-07T17:12:11.942Z,19.74
2022-10-07T17:14:58.002Z,19.72
2022-10-07T17:17:44.576Z,19.77
2022-10-07T17:20:31.426Z,19.76
2022-10-07T17:23:27.342Z,19.78
2022-10-07T17:26:14.370Z,19.74
2022-10-07T17:29:02.733Z,19.24
2022-10-07T17:31:50.693Z,18.92
2022-10-07T17:34:39.906Z,19.41
2022-10-07T17:37:29.372Z,18.78
2022-10-07T17:40:15.703Z,18.64
2022-10-07T17:43:04.597Z,18.78
2022-10-07T17:45:50.820Z,18.74
2022-10-07T17:48:37.530Z,18.94
2022-10-07T17:51:27.896Z,19.01
2022-10-07T17:54:14.302Z,18.55
2022-10-07T17:57:00.875Z,18.47
2022-10-07T17:59:46.798Z,18.50
2022-10-07T18:02:33.903Z,18.58
2022-10-07T18:05:20.289Z,18.77
2022-10-07T18:08:06.714Z,18.61
2022-10-07T18:10:53.225Z,18.51
2022-10-07T18:13:57.692Z,18.53
2022-10-07T18:16:44.343Z,18.30
2022-10-07T18:19:30.703Z,18.52
2022-10-07T18:22:17.078Z,18.39
2022-10-07T18:25:04.354Z,18.36
2022-10-07T18:27:52.881Z,18.46
2022-10-07T18:30:38.921Z,18.65
2022-10-07T18:33:25.259Z,18.47
2022-10-07T18:36:13.860Z,18.41
2022-10-07T18:39:00.557Z,18.06
2022-10-07T18:41:46.823Z,18.26
2022-10-07T18:44:33.328Z,18.36
2022-10-07T18:47:19.792Z,18.37
2022-10-07T18:50:06.403Z,18.07
2022-10-07T18:52:52.530Z,17.76
2022-10-07T18:55:39.481Z,17.84
2022-10-07T18:58:25.864Z,17.97
2022-10-07T19:01:12.700Z,17.87
2022-10-07T19:04:01.362Z,17.45
2022-10-07T19:06:47.942Z,17.46
2022-10-07T19:09:34.424Z,17.71
2022-10-07T19:12:39.370Z,17.73
2022-10-07T19:15:25.513Z,17.37
2022-10-07T19:18:13.245Z,17.20
2022-10-07T19:20:59.736Z,16.96
2022-10-07T19:23:50.108Z,17.01
2022-10-07T19:26:38.229Z,17.01
2022-10-07T19:29:24.524Z,17.06
2022-10-07T19:32:10.588Z,16.99
2022-10-07T19:34:57.364Z,17.05
2022-10-07T19:37:43.356Z,17.05
2022-10-07T19:40:29.695Z,17.31
2022-10-07T19:43:15.714Z,16.97
2022-10-07T19:46:02.781Z,16.91
2022-10-07T19:48:49.618Z,17.05
2022-10-07T19:51:37.181Z,16.97
2022-10-07T19:54:23.556Z,16.22
2022-10-07T19:57:11.795Z,16.15
2022-10-07T19:59:57.878Z,16.00
2022-10-07T20:02:44.174Z,15.68
2022-10-07T20:05:31.581Z,16.13
2022-10-07T20:08:18.005Z,16.48
2022-10-07T20:11:05.267Z,16.37
2022-10-07T20:13:54.288Z,16.06
2022-10-07T20:16:40.926Z,15.56
2022-10-07T20:19:27.068Z,16.03
2022-10-07T20:22:13.497Z,15.92
2022-10-07T20:25:01.051Z,16.10
2022-10-07T20:27:49.182Z,16.00
2022-10-07T20:30:35.595Z,15.94
2022-10-07T20:33:21.901Z,16.03
2022-10-07T20:36:11.037Z,16.22
2022-10-07T20:39:18.344Z,15.78
2022-10-07T20:42:22.045Z,15.93
2022-10-07T20:45:08.861Z,15.97
2022-10-07T20:47:59.463Z,15.88
2022-10-07T20:50:45.665Z,15.96
2022-10-07T20:53:31.844Z,15.72
2022-10-07T20:56:18.769Z,15.50
2022-10-07T20:59:04.546Z,15.54
2022-10-07T21:01:51.345Z,15.37
2022-10-07T21:04:37.229Z,15.58
2022-10-07T21:07:23.503Z,15.62
2022-10-07T21:10:09.289Z,15.40
2022-10-07T21:12:55.728Z,15.82
2022-10-07T21:15:42.598Z,15.19
2022-10-07T21:18:29.902Z,15.12
2022-10-07T21:21:16.085Z,15.18
2022-10-07T21:24:02.401Z,15.33
2022-10-07T21:26:48.795Z,15.41
2022-10-07T21:29:40.190Z,15.13
2022-10-07T21:32:28.154Z,14.46
2022-10-07T21:35:14.178Z,14.96
2022-10-07T21:38:00.645Z,15.11
2022-10-07T21:40:46.976Z,14.52
2022-10-07T21:43:33.343Z,14.37
2022-10-07T21:46:20.900Z,14.84
2022-10-07T21:49:07.800Z,14.65
2022-10-07T21:51:54.032Z,14.97
2022-10-07T21:54:41.140Z,15.16
2022-10-07T21:57:27.143Z,15.15
2022-10-07T22:00:13.658Z,15.17
2022-10-07T22:03:00.300Z,14.91
2022-10-07T22:05:46.767Z,14.73
2022-10-07T22:08:36.313Z,14.53
2022-10-07T22:11:22.429Z,14.61
2022-10-07T22:14:12.495Z,14.66
2022-10-07T22:16:58.948Z,15.03
2022-10-07T22:19:45.154Z,14.56
2022-10-07T22:22:31.771Z,14.61
2022-10-07T22:25:18.429Z,14.17
2022-10-07T22:28:04.255Z,14.35
2022-10-07T22:30:50.797Z,14.65
2022-10-07T22:33:37.998Z,13.83
2022-10-07T22:36:25.078Z,14.39
2022-10-07T22:39:11.058Z,14.44
2022-10-07T22:41:58.587Z,13.77
2022-10-07T22:44:44.368Z,13.82
2022-10-07T22:47:30.686Z,13.78
2022-10-07T22:50:16.965Z,14.16
2022-10-07T22:53:03.947Z,14.24
2022-10-07T22:55:50.653Z,14.51
2022-10-07T22:58:39.076Z,14.19
2022-10-07T23:01:25.309Z,14.25
2022-10-07T23:04:11.668Z,13.20
2022-10-07T23:06:58.743Z,13.85
2022-10-07T23:09:44.982Z,14.25
2022-10-07T23:12:31.414Z,14.38
2022-10-07T23:15:20.010Z,14.22
2022-10-07T23:18:06.107Z,13.95
2022-10-07T23:21:04.341Z,13.97
2022-10-07T23:23:53.159Z,14.27
2022-10-07T23:26:39.467Z,13.94
2022-10-07T23:29:26.612Z,14.10
2022-10-07T23:32:13.372Z,13.53
2022-10-07T23:34:59.941Z,13.77
2022-10-07T23:37:46.080Z,13.88
2022-10-07T23:40:32.111Z,13.93
2022-10-07T23:43:18.345Z,13.98
2022-10-07T23:46:05.975Z,13.55
2022-10-07T23:48:52.654Z,13.77
2022-10-07T23:51:38.841Z,12.47
2022-10-07T23:54:25.489Z,12.79
2022-10-07T23:57:11.961Z,13.28
2022-10-07T23:59:58.200Z,13.34
